Time;durP1;ratioP1;P1;durP2;ratioP2;P2;SDS_P1;SDS_P2;PMS_P1;PMS_P2;Temp;Humidity;BMP_temperature;BMP_pressure;BME280_temperature;BME280_humidity;BME280_pressure;Samples;Min_cycle;Max_cycle;Signal;HPM_P1;HPM_P2
2022/09/28 00:01:17;;;;;;;6.82;1.00;;;9.50;99.90;;;;;;5094253;28;20036;-33
2022/09/28 00:03:44;;;;;;;3.30;0.70;;;9.50;99.90;;;;;;5087929;28;20448;-33
2022/09/28 00:06:12;;;;;;;0.85;0.70;;;9.50;99.90;;;;;;5092145;28;20035;-37
2022/09/28 00:08:39;;;;;;;3.08;1.17;;;9.40;99.90;;;;;;5082723;28;20472;-33
2022/09/28 00:11:07;;;;;;;1.05;0.82;;;9.50;99.90;;;;;;5094325;28;20582;-37
2022/09/28 00:13:33;;;;;;;0.88;0.80;;;9.40;99.90;;;;;;5093006;28;20028;-43
2022/09/28 00:16:14;;;;;;;1.17;0.60;;;9.40;99.90;;;;;;5092550;28;20761;-37
2022/09/28 00:18:40;;;;;;;3.03;0.75;;;9.40;99.90;;;;;;5093347;28;20031;-34
2022/09/28 00:21:11;;;;;;;1.10;0.70;;;9.40;99.90;;;;;;5092919;28;20474;-45
2022/09/28 00:24:11;;;;;;;0.98;0.40;;;9.40;99.90;;;;;;5092365;28;20472;-35
2022/09/28 00:26:26;;;;;;;4.22;0.90;;;9.40;99.90;;;;;;5090218;28;20071;-39
2022/09/28 00:28:53;;;;;;;0.77;0.60;;;9.40;99.90;;;;;;5073930;28;20029;-39
2022/09/28 00:31:19;;;;;;;0.57;0.57;;;9.40;99.90;;;;;;5089578;28;20491;-38
2022/09/28 00:33:49;;;;;;;0.82;0.63;;;9.40;99.90;;;;;;5085867;28;20033;-35
2022/09/28 00:36:14;;;;;;;3.75;1.17;;;9.40;99.90;;;;;;5084534;28;20028;-32
2022/09/28 00:38:40;;;;;;;4.82;0.70;;;9.40;99.90;;;;;;5083493;28;20039;-37
2022/09/28 00:41:07;;;;;;;1.10;0.55;;;9.40;99.90;;;;;;5089878;28;20035;-33
2022/09/28 00:43:32;;;;;;;1.25;0.73;;;9.40;99.90;;;;;;5093168;28;20031;-35
2022/09/28 00:46:01;;;;;;;1.42;0.60;;;9.40;99.90;;;;;;5074017;28;20476;-35
2022/09/28 00:48:32;;;;;;;3.60;0.80;;;9.40;99.90;;;;;;5083198;28;20487;-33
2022/09/28 00:51:02;;;;;;;1.52;0.93;;;9.40;99.90;;;;;;5085493;28;20507;-32
2022/09/28 00:53:33;;;;;;;4.57;0.60;;;9.50;99.90;;;;;;5087888;28;20119;-33
2022/09/28 00:56:10;;;;;;;0.95;0.90;;;9.50;99.90;;;;;;5076895;28;20487;-36
2022/09/28 00:58:40;;;;;;;0.90;0.65;;;9.50;99.90;;;;;;5089209;28;20028;-33
2022/09/28 01:01:06;;;;;;;2.10;0.85;;;9.50;99.90;;;;;;5092202;28;20089;-38
2022/09/28 01:03:32;;;;;;;1.73;1.00;;;9.50;99.90;;;;;;5088308;28;20024;-32
2022/09/28 01:06:01;;;;;;;1.10;0.80;;;9.50;99.90;;;;;;5073554;28;20480;-32
2022/09/28 01:08:29;;;;;;;1.80;1.10;;;9.50;99.90;;;;;;5092416;28;20046;-32
2022/09/28 01:10:54;;;;;;;;;;;9.50;99.90;;;;;;5089170;28;20492;-36
2022/09/28 01:13:23;;;;;;;2.75;1.13;;;9.50;99.90;;;;;;5076966;28;19915;-35
2022/09/28 01:15:55;;;;;;;;;;;9.50;99.90;;;;;;5078449;28;20530;-34
2022/09/28 01:18:51;;;;;;;1.75;0.90;;;9.50;99.90;;;;;;5084048;28;19922;-35
2022/09/28 01:21:22;;;;;;;3.67;1.15;;;9.40;99.90;;;;;;5072870;28;20075;-34
2022/09/28 01:24:09;;;;;;;1.48;1.38;;;9.40;99.90;;;;;;5085087;28;20036;-34
2022/09/28 01:26:44;;;;;;;;;;;9.40;99.90;;;;;;5081071;28;20503;-36
2022/09/28 01:29:30;;;;;;;2.20;1.50;;;9.40;99.90;;;;;;5085525;28;19908;-35
2022/09/28 01:32:07;;;;;;;2.40;1.40;;;9.40;99.90;;;;;;5071591;28;20032;-34
2022/09/28 01:34:42;;;;;;;4.47;1.42;;;9.40;99.90;;;;;;5090991;28;20024;-39
2022/09/28 01:37:12;;;;;;;4.53;1.58;;;9.40;99.90;;;;;;5076870;28;20036;-36
2022/09/28 01:39:42;;;;;;;1.67;1.33;;;9.30;99.90;;;;;;5082490;28;20039;-34
2022/09/28 01:42:15;;;;;;;1.38;1.20;;;9.30;99.90;;;;;;5073397;28;20025;-33
2022/09/28 01:44:44;;;;;;;1.25;1.13;;;9.30;99.90;;;;;;5073080;28;20048;-33
2022/09/28 01:47:12;;;;;;;1.30;1.20;;;9.30;99.90;;;;;;5083865;28;20028;-37
2022/09/28 01:49:46;;;;;;;2.63;1.50;;;9.30;99.90;;;;;;5073424;28;20536;-33
2022/09/28 01:52:26;;;;;;;3.67;1.40;;;9.30;99.90;;;;;;5089372;28;20468;-34
2022/09/28 01:55:04;;;;;;;3.67;0.80;;;9.20;99.90;;;;;;5091513;28;20019;-31
2022/09/28 01:57:34;;;;;;;;;;;9.20;99.90;;;;;;5084270;28;20476;-38
2022/09/28 02:00:07;;;;;;;0.75;0.73;;;9.20;99.90;;;;;;5091628;28;19912;-38
2022/09/28 02:02:38;;;;;;;2.08;1.30;;;9.20;99.90;;;;;;5091178;28;20066;-37
2022/09/28 02:05:13;;;;;;;1.83;0.63;;;9.20;99.90;;;;;;5090630;28;20298;-38
2022/09/28 02:08:04;;;;;;;0.70;0.70;;;9.20;99.90;;;;;;5096519;28;20099;-35
2022/09/28 02:10:36;;;;;;;1.20;0.70;;;9.20;99.90;;;;;;5085205;28;20039;-33
2022/09/28 02:13:15;;;;;;;0.80;0.63;;;9.20;99.90;;;;;;5077423;28;20508;-34
2022/09/28 02:16:13;;;;;;;0.57;0.57;;;9.20;99.90;;;;;;5085336;28;20488;-37
2022/09/28 02:18:39;;;;;;;1.73;0.35;;;9.20;99.90;;;;;;5094357;28;20081;-38
2022/09/28 02:21:16;;;;;;;0.68;0.50;;;9.20;99.90;;;;;;5096201;28;20484;-36
2022/09/28 02:24:09;;;;;;;0.73;0.32;;;9.20;99.90;;;;;;5091838;28;20033;-35
2022/09/28 02:26:40;;;;;;;0.47;0.35;;;9.20;99.90;;;;;;5083875;28;20042;-38
2022/09/28 02:29:07;;;;;;;5.82;0.45;;;9.30;99.90;;;;;;5088454;28;20465;-34
2022/09/28 02:31:33;;;;;;;0.43;0.40;;;9.30;99.90;;;;;;5086378;28;20051;-34
2022/09/28 02:33:58;;;;;;;0.45;0.43;;;9.30;99.90;;;;;;5094360;28;20032;-32
2022/09/28 02:36:26;;;;;;;2.83;0.45;;;9.30;99.90;;;;;;5096128;28;20425;-36
2022/09/28 02:38:52;;;;;;;0.85;0.30;;;9.30;99.90;;;;;;5087601;28;20471;-38
2022/09/28 02:41:31;;;;;;;2.60;0.73;;;9.20;99.90;;;;;;5081731;28;20107;-34
2022/09/28 02:44:19;;;;;;;0.10;0.10;;;9.20;99.90;;;;;;5088170;28;20021;-37
2022/09/28 02:47:20;;;;;;;0.47;0.20;;;9.20;99.90;;;;;;5090255;28;20522;-35
2022/09/28 02:50:11;;;;;;;0.17;0.17;;;9.30;99.90;;;;;;5013951;28;20083;-32
2022/09/28 02:53:01;;;;;;;0.10;0.10;;;9.20;99.90;;;;;;5090376;28;20471;-38
2022/09/28 02:55:51;;;;;;;0.50;0.38;;;9.20;99.90;;;;;;5090055;28;20031;-34
2022/09/28 02:58:29;;;;;;;0.47;0.20;;;9.20;99.90;;;;;;5073899;28;20384;-38
2022/09/28 03:01:11;;;;;;;0.20;0.20;;;9.20;99.90;;;;;;5095419;28;20111;-36
2022/09/28 03:03:44;;;;;;;0.10;0.10;;;9.20;99.90;;;;;;5095220;28;20149;-39
2022/09/28 03:06:30;;;;;;;0.43;0.43;;;9.30;99.90;;;;;;5075925;28;20032;-38
2022/09/28 03:09:11;;;;;;;1.85;0.30;;;9.20;99.90;;;;;;5079124;28;20031;-38
2022/09/28 03:11:42;;;;;;;3.03;0.30;;;9.20;99.90;;;;;;5088412;28;20028;-42
2022/09/28 03:14:09;;;;;;;0.75;0.30;;;9.20;99.90;;;;;;5083780;28;20031;-52
2022/09/28 03:16:35;;;;;;;0.10;0.10;;;9.20;99.90;;;;;;5092656;28;20508;-36
2022/09/28 03:19:00;;;;;;;0.55;0.30;;;9.20;99.90;;;;;;5082721;28;20024;-34
2022/09/28 03:21:26;;;;;;;1.10;0.20;;;9.20;99.90;;;;;;5090874;28;20092;-36
2022/09/28 03:23:52;;;;;;;3.72;0.10;;;9.20;99.90;;;;;;5090233;28;20039;-34
2022/09/28 03:26:18;;;;;;;0.30;0.17;;;9.20;99.90;;;;;;5094569;28;20044;-37
2022/09/28 03:28:44;;;;;;;0.32;0.30;;;9.20;99.90;;;;;;5087800;28;20039;-35
2022/09/28 03:31:09;;;;;;;0.45;0.30;;;9.20;99.90;;;;;;5088478;28;20032;-40
2022/09/28 03:33:35;;;;;;;0.50;0.30;;;9.30;99.90;;;;;;5093758;28;20525;-41
2022/09/28 03:36:01;;;;;;;0.40;0.20;;;9.30;99.90;;;;;;5090068;28;20078;-40
2022/09/28 03:38:26;;;;;;;0.10;0.10;;;9.40;99.90;;;;;;5092994;28;20027;-41
2022/09/28 03:40:57;;;;;;;3.20;0.10;;;9.40;99.90;;;;;;5087128;28;20071;-39
2022/09/28 03:43:23;;;;;;;1.02;0.20;;;9.30;99.90;;;;;;5090013;28;20028;-38
2022/09/28 03:45:54;;;;;;;0.10;0.10;;;9.30;99.90;;;;;;5081826;28;20426;-40
2022/09/28 03:48:24;;;;;;;1.08;0.10;;;9.30;99.90;;;;;;5093966;28;20464;-38
2022/09/28 03:50:54;;;;;;;0.10;0.10;;;9.30;99.90;;;;;;5086483;28;20044;-36
2022/09/28 03:53:20;;;;;;;0.93;0.20;;;9.30;99.90;;;;;;5086304;28;20480;-40
2022/09/28 03:55:46;;;;;;;0.63;0.10;;;9.30;99.90;;;;;;5085366;28;20392;-40
2022/09/28 03:58:12;;;;;;;0.75;0.20;;;9.20;99.90;;;;;;5094204;28;20016;-42
2022/09/28 04:00:38;;;;;;;0.28;0.20;;;9.20;99.90;;;;;;5086925;28;20439;-42
2022/09/28 04:03:03;;;;;;;0.20;0.20;;;9.20;99.90;;;;;;5088300;28;20047;-42
2022/09/28 04:05:29;;;;;;;0.05;0.05;;;9.20;99.90;;;;;;5092568;28;20028;-42
2022/09/28 04:07:56;;;;;;;0.10;0.10;;;9.20;99.90;;;;;;5080476;28;20020;-41
2022/09/28 04:10:22;;;;;;;0.10;0.10;;;9.20;99.90;;;;;;5086768;28;20020;-43
2022/09/28 04:12:49;;;;;;;3.60;0.13;;;9.20;99.90;;;;;;5076083;28;20021;-46
2022/09/28 04:15:15;;;;;;;0.15;0.03;;;9.20;99.90;;;;;;5077000;28;20426;-42
2022/09/28 04:17:41;;;;;;;0.20;0.20;;;9.10;99.90;;;;;;5087957;28;20115;-40
2022/09/28 04:20:07;;;;;;;0.40;0.10;;;9.10;99.90;;;;;;5092394;28;20488;-38
2022/09/28 04:22:36;;;;;;;0.10;0.10;;;9.10;99.90;;;;;;5077754;28;20024;-44
2022/09/28 04:25:02;;;;;;;0.10;0.10;;;9.10;99.90;;;;;;5076469;28;20140;-41
2022/09/28 04:30:12;;;;;;;0.20;0.20;;;9.00;99.90;;;;;;5079825;28;20031;-43
2022/09/28 04:32:38;;;;;;;0.10;0.10;;;9.00;99.90;;;;;;5080532;28;20016;-44
2022/09/28 04:35:04;;;;;;;0.30;0.10;;;9.10;99.90;;;;;;5087721;28;20021;-37
2022/09/28 04:37:30;;;;;;;1.20;0.17;;;9.10;99.90;;;;;;5070912;28;20020;-40
2022/09/28 04:39:56;;;;;;;0.13;0.13;;;9.10;99.90;;;;;;5083223;28;20442;-39
2022/09/28 04:42:21;;;;;;;1.08;0.25;;;9.10;99.90;;;;;;5086058;28;20020;-40
2022/09/28 04:44:47;;;;;;;0.38;0.38;;;9.20;99.90;;;;;;5080193;28;20031;-44
2022/09/28 04:47:12;;;;;;;0.20;0.20;;;9.20;99.90;;;;;;5077493;28;20532;-38
2022/09/28 04:49:38;;;;;;;0.45;0.20;;;9.20;99.90;;;;;;5091584;28;20472;-58
2022/09/28 04:52:04;;;;;;;0.30;0.20;;;9.20;99.90;;;;;;5091404;28;20032;-41
2022/09/28 04:54:30;;;;;;;0.30;0.30;;;9.30;99.90;;;;;;5090552;28;20472;-41
2022/09/28 04:56:56;;;;;;;0.28;0.28;;;9.30;99.90;;;;;;5080235;28;20107;-37
2022/09/28 04:59:22;;;;;;;1.20;0.20;;;9.20;99.90;;;;;;5077153;28;20472;-36
2022/09/28 05:01:48;;;;;;;2.40;0.20;;;9.30;99.90;;;;;;5084062;28;20032;-38
2022/09/28 05:04:13;;;;;;;0.20;0.20;;;9.20;99.90;;;;;;5085135;28;20024;-37
2022/09/28 05:06:39;;;;;;;0.28;0.20;;;9.20;99.90;;;;;;5091128;28;20034;-58
2022/09/28 05:09:05;;;;;;;0.35;0.30;;;9.20;99.90;;;;;;5081763;28;20027;-41
2022/09/28 05:11:31;;;;;;;0.30;0.20;;;9.20;99.90;;;;;;5093288;28;20030;-42
2022/09/28 05:13:56;;;;;;;3.20;0.30;;;9.20;99.90;;;;;;5076304;28;20032;-39
2022/09/28 05:16:24;;;;;;;0.30;0.30;;;9.20;99.90;;;;;;5082709;28;20024;-36
2022/09/28 05:18:54;;;;;;;1.33;0.40;;;9.20;99.90;;;;;;5092400;28;20472;-38
2022/09/28 05:21:19;;;;;;;0.73;0.40;;;9.20;99.90;;;;;;5083035;28;20461;-37
2022/09/28 05:23:46;;;;;;;1.85;0.55;;;9.20;99.90;;;;;;5088474;28;20025;-39
2022/09/28 05:26:12;;;;;;;0.93;0.52;;;9.20;99.90;;;;;;5072846;28;20538;-42
2022/09/28 05:28:38;;;;;;;1.48;0.50;;;9.20;99.90;;;;;;5080073;28;20452;-38
2022/09/28 05:31:04;;;;;;;0.85;0.57;;;9.20;99.90;;;;;;5081835;28;20031;-37
2022/09/28 05:33:31;;;;;;;0.50;0.50;;;9.10;99.90;;;;;;5092124;28;20028;-54
2022/09/28 05:35:57;;;;;;;2.42;1.02;;;9.10;99.90;;;;;;5080221;28;20021;-41
2022/09/28 05:38:23;;;;;;;1.42;0.90;;;9.10;99.90;;;;;;5072911;28;20059;-37
2022/09/28 05:40:49;;;;;;;0.80;0.80;;;9.10;99.90;;;;;;5079574;28;20077;-40
2022/09/28 05:43:15;;;;;;;1.42;0.80;;;9.10;99.90;;;;;;5072931;28;20025;-40
2022/09/28 05:45:41;;;;;;;0.95;0.60;;;9.10;99.90;;;;;;5083086;28;20046;-40
2022/09/28 05:48:06;;;;;;;0.93;0.60;;;9.10;99.90;;;;;;5084806;28;20472;-36
2022/09/28 05:50:32;;;;;;;1.10;0.57;;;9.10;99.90;;;;;;5086866;28;20027;-40
2022/09/28 05:53:04;;;;;;;1.52;0.47;;;9.10;99.90;;;;;;5087169;28;20032;-43
2022/09/28 05:55:31;;;;;;;1.27;0.73;;;9.10;99.90;;;;;;5080527;28;20028;-41
2022/09/28 05:57:58;;;;;;;0.50;0.50;;;9.10;99.90;;;;;;5077797;28;20476;-37
2022/09/28 06:00:24;;;;;;;1.40;0.60;;;9.00;99.90;;;;;;5091983;28;20380;-41
2022/09/28 06:03:01;;;;;;;1.35;0.70;;;9.00;99.90;;;;;;5087651;28;20499;-40
2022/09/28 06:05:28;;;;;;;1.23;0.60;;;9.00;99.90;;;;;;5073992;28;20036;-35
2022/09/28 06:07:57;;;;;;;0.45;0.40;;;9.00;99.90;;;;;;5074824;28;20477;-41
2022/09/28 06:10:25;;;;;;;0.47;0.47;;;9.10;99.90;;;;;;5088577;28;20058;-69
2022/09/28 06:12:55;;;;;;;1.10;0.73;;;9.10;99.90;;;;;;5074342;28;20028;-37
2022/09/28 06:15:22;;;;;;;2.20;0.50;;;9.10;99.90;;;;;;5085543;28;20465;-39
2022/09/28 06:18:17;;;;;;;0.60;0.52;;;9.20;99.90;;;;;;5078541;28;20418;-37
2022/09/28 06:20:42;;;;;;;0.32;0.32;;;9.20;99.90;;;;;;5078071;28;20518;-35
2022/09/28 06:23:10;;;;;;;0.98;0.70;;;9.30;99.90;;;;;;5086795;28;20024;-46
2022/09/28 06:25:35;;;;;;;0.65;0.65;;;9.30;99.90;;;;;;5091523;28;20044;-40
2022/09/28 06:28:06;;;;;;;1.23;0.68;;;9.30;99.90;;;;;;5092234;28;20016;-42
2022/09/28 06:30:36;;;;;;;3.38;0.60;;;9.40;99.90;;;;;;5081598;28;20396;-42
2022/09/28 06:33:03;;;;;;;2.05;0.75;;;9.40;99.90;;;;;;5082721;28;20024;-41
2022/09/28 06:35:30;;;;;;;1.73;0.55;;;9.50;99.90;;;;;;5078339;28;20028;-45
2022/09/28 06:37:59;;;;;;;0.60;0.60;;;9.50;99.90;;;;;;5057769;28;20020;-40
2022/09/28 06:40:25;;;;;;;0.60;0.60;;;9.50;99.90;;;;;;5087968;28;20048;-41
2022/09/28 06:42:59;;;;;;;0.57;0.55;;;9.60;99.90;;;;;;5078212;28;20376;-47
2022/09/28 06:45:26;;;;;;;3.00;0.57;;;9.70;99.90;;;;;;5086036;28;20468;-43
2022/09/28 06:47:57;;;;;;;0.70;0.70;;;9.70;99.90;;;;;;5078923;28;20020;-44
2022/09/28 06:50:27;;;;;;;2.08;0.98;;;9.70;99.90;;;;;;5084247;28;20521;-42
2022/09/28 06:52:53;;;;;;;1.73;0.82;;;9.70;99.90;;;;;;5096432;28;20460;-43
2022/09/28 06:55:20;;;;;;;0.50;0.50;;;9.80;99.90;;;;;;5092340;28;20053;-41
2022/09/28 06:57:46;;;;;;;4.03;1.13;;;9.80;99.90;;;;;;5093611;28;20383;-41
2022/09/28 07:00:12;;;;;;;2.47;0.90;;;9.90;99.90;;;;;;5080851;28;20024;-39
2022/09/28 07:02:38;;;;;;;3.50;1.67;;;9.90;99.90;;;;;;5089075;28;20024;-43
2022/09/28 07:05:07;;;;;;;1.70;0.93;;;10.00;99.90;;;;;;5091019;28;20034;-44
2022/09/28 07:07:32;;;;;;;3.97;0.88;;;10.00;99.90;;;;;;5091311;28;20420;-40
2022/09/28 07:10:04;;;;;;;0.70;0.70;;;10.10;99.90;;;;;;5088138;28;20099;-42
2022/09/28 07:12:31;;;;;;;1.08;0.65;;;10.20;99.90;;;;;;5092823;28;20468;-43
2022/09/28 07:14:57;;;;;;;5.15;0.88;;;10.20;99.90;;;;;;5077483;28;20029;-44
2022/09/28 07:17:23;;;;;;;5.15;0.90;;;10.30;99.90;;;;;;5090319;28;20104;-42
2022/09/28 07:19:51;;;;;;;0.52;0.52;;;10.40;99.90;;;;;;5079332;28;20496;-42
2022/09/28 07:22:17;;;;;;;;;;;10.40;99.90;;;;;;5084926;28;20467;-46
2022/09/28 07:24:43;;;;;;;6.63;0.80;;;10.50;99.90;;;;;;5094244;28;19960;-40
2022/09/28 07:27:09;;;;;;;1.80;0.98;;;10.60;99.90;;;;;;5091858;28;20160;-44
2022/09/28 07:29:35;;;;;;;1.35;1.08;;;10.60;99.90;;;;;;5081641;28;20016;-49
2022/09/28 07:32:02;;;;;;;1.40;0.63;;;10.70;99.90;;;;;;5069712;28;20033;-40
2022/09/28 07:34:27;;;;;;;0.90;0.60;;;10.80;99.90;;;;;;5079837;28;20032;-75
2022/09/28 07:36:57;;;;;;;1.52;1.00;;;10.90;99.90;;;;;;5088548;28;20507;-42
2022/09/28 07:39:23;;;;;;;2.00;0.90;;;10.90;99.90;;;;;;5087183;28;20376;-43
2022/09/28 07:41:49;;;;;;;1.67;1.40;;;11.00;99.90;;;;;;5059143;28;20042;-50
2022/09/28 07:44:16;;;;;;;2.55;1.25;;;11.10;99.90;;;;;;5093740;28;20028;-42
2022/09/28 07:46:42;;;;;;;1.23;1.13;;;11.10;99.90;;;;;;5093885;28;20063;-40
2022/09/28 07:49:08;;;;;;;1.45;0.70;;;11.20;99.90;;;;;;5093249;28;20077;-48
2022/09/28 07:51:33;;;;;;;0.57;0.55;;;11.30;99.90;;;;;;5076951;28;20016;-43
2022/09/28 07:53:59;;;;;;;3.05;0.70;;;11.30;99.90;;;;;;5093440;28;20032;-44
2022/09/28 07:56:25;;;;;;;1.52;0.52;;;11.40;99.90;;;;;;5094982;28;20026;-44
2022/09/28 07:58:50;;;;;;;2.42;0.90;;;11.50;99.90;;;;;;5092227;28;20028;-46
2022/09/28 08:01:18;;;;;;;1.65;0.60;;;11.60;99.90;;;;;;5094229;28;20032;-38
2022/09/28 08:03:45;;;;;;;5.33;0.80;;;11.60;99.90;;;;;;5085342;28;20032;-42
2022/09/28 08:06:13;;;;;;;1.17;0.57;;;11.70;99.90;;;;;;5085391;28;20468;-42
2022/09/28 08:08:43;;;;;;;0.43;0.40;;;11.80;99.90;;;;;;5090769;28;20016;-44
2022/09/28 08:11:14;;;;;;;0.68;0.60;;;11.90;99.90;;;;;;5074168;28;20059;-37
2022/09/28 08:13:40;;;;;;;3.10;0.57;;;12.00;99.90;;;;;;5082776;28;20600;-42
2022/09/28 08:16:07;;;;;;;1.13;0.52;;;12.10;99.90;;;;;;5088365;28;20103;-44
2022/09/28 08:18:34;;;;;;;2.72;0.52;;;12.10;99.90;;;;;;5092601;28;20066;-58
2022/09/28 08:23:45;;;;;;;1.92;0.60;;;12.30;99.90;;;;;;5083211;28;20070;-44
2022/09/28 08:26:11;;;;;;;0.30;0.30;;;12.40;99.90;;;;;;5086553;28;20048;-42
2022/09/28 08:28:38;;;;;;;4.50;0.60;;;12.50;99.90;;;;;;5081114;28;20024;-44
2022/09/28 08:31:06;;;;;;;0.57;0.28;;;12.50;99.90;;;;;;5074013;28;20020;-40
2022/09/28 08:33:32;;;;;;;4.60;0.40;;;12.50;99.90;;;;;;5074100;28;20472;-43
2022/09/28 08:36:00;;;;;;;0.50;0.28;;;12.60;99.90;;;;;;5074115;28;20468;-43
2022/09/28 08:38:28;;;;;;;3.33;0.63;;;12.60;99.90;;;;;;5073902;28;20062;-42
2022/09/28 08:41:03;;;;;;;1.48;0.57;;;12.70;99.90;;;;;;5074005;28;20025;-38
2022/09/28 08:43:34;;;;;;;0.35;0.35;;;12.80;99.90;;;;;;5077845;28;20035;-42
2022/09/28 08:46:00;;;;;;;0.30;0.25;;;12.80;99.90;;;;;;5074391;28;20063;-43
2022/09/28 08:48:44;;;;;;;1.13;0.40;;;12.90;99.90;;;;;;5074049;28;20090;-43
2022/09/28 08:51:34;;;;;;;1.00;0.38;;;13.00;99.90;;;;;;5074051;28;20503;-41
2022/09/28 08:54:06;;;;;;;0.25;0.20;;;13.00;99.90;;;;;;5055237;28;20396;-42
2022/09/28 08:56:41;;;;;;;0.20;0.20;;;13.20;99.90;;;;;;5076794;28;20429;-40
2022/09/28 08:59:15;;;;;;;0.68;0.38;;;13.20;99.90;;;;;;5093884;28;20024;-41
2022/09/28 09:01:49;;;;;;;0.08;0.08;;;13.20;99.90;;;;;;5093915;28;20062;-42
2022/09/28 09:04:14;;;;;;;0.15;0.15;;;13.30;99.90;;;;;;5088336;28;20107;-41
2022/09/28 09:07:16;;;;;;;0.32;0.30;;;13.40;99.90;;;;;;5078488;28;20568;-41
2022/09/28 09:10:04;;;;;;;1.17;0.30;;;13.40;99.90;;;;;;5047507;28;20082;-40
2022/09/28 09:12:35;;;;;;;0.22;0.17;;;13.50;99.90;;;;;;5073776;28;20025;-43
2022/09/28 09:15:33;;;;;;;6.93;0.38;;;13.40;99.90;;;;;;5073448;28;20056;-41
2022/09/28 09:18:21;;;;;;;0.20;0.20;;;13.40;99.90;;;;;;5065944;28;20488;-44
2022/09/28 09:20:54;;;;;;;0.20;0.20;;;13.40;99.90;;;;;;5085939;28;20028;-40
2022/09/28 09:23:54;;;;;;;0.10;0.10;;;13.40;99.90;;;;;;5092571;28;20035;-41
2022/09/28 09:29:27;;;;;;;0.82;0.25;;;13.40;99.90;;;;;;5079113;28;20444;-42
2022/09/28 09:32:41;;;;;;;0.85;0.25;;;13.50;99.90;;;;;;5093429;28;20369;-44
2022/09/28 09:35:24;;;;;;;0.63;0.20;;;13.60;99.90;;;;;;5030895;28;20035;-40
2022/09/28 09:38:44;;;;;;;1.40;1.00;;;13.70;99.90;;;;;;5068904;28;20115;-42
2022/09/28 09:41:32;;;;;;;0.40;0.40;;;13.90;99.90;;;;;;4991542;28;20538;-44
2022/09/28 09:44:00;;;;;;;1.27;0.30;;;14.20;99.90;;;;;;5086332;28;20040;-41
2022/09/28 09:46:38;;;;;;;0.25;0.20;;;14.00;99.90;;;;;;5093059;28;20031;-46
2022/09/28 09:49:13;;;;;;;0.20;0.20;;;13.90;99.90;;;;;;5093385;28;20111;-43
2022/09/28 09:52:09;;;;;;;0.28;0.10;;;13.70;99.90;;;;;;5093017;28;20024;-40
2022/09/28 09:54:41;;;;;;;0.10;0.10;;;13.80;99.90;;;;;;5092969;28;20024;-45
2022/09/28 09:57:30;;;;;;;0.82;0.20;;;13.90;99.90;;;;;;5092069;28;20020;-53
2022/09/28 09:59:59;;;;;;;0.30;0.13;;;13.90;99.90;;;;;;5092983;28;20024;-45
2022/09/28 10:02:31;;;;;;;0.52;0.40;;;14.00;99.90;;;;;;5092945;28;20059;-40
2022/09/28 10:05:18;;;;;;;2.25;0.40;;;14.00;99.90;;;;;;5092946;28;20038;-46
2022/09/28 10:08:04;;;;;;;0.68;0.13;;;14.10;99.90;;;;;;5093007;28;20023;-40
2022/09/28 10:10:34;;;;;;;0.32;0.25;;;14.20;99.90;;;;;;5093162;28;20531;-40
2022/09/28 10:13:00;;;;;;;3.30;0.50;;;14.10;99.90;;;;;;5091992;28;20016;-40
2022/09/28 10:15:34;;;;;;;0.10;0.10;;;14.00;99.90;;;;;;5092755;28;20487;-42
2022/09/28 10:18:06;;;;;;;0.57;0.30;;;13.90;99.90;;;;;;5092331;28;20464;-41
2022/09/28 10:20:36;;;;;;;0.57;0.20;;;13.80;99.90;;;;;;5074403;28;20037;-41
2022/09/28 10:23:05;;;;;;;0.68;0.17;;;13.80;99.90;;;;;;5092716;28;20024;-41
2022/09/28 10:25:35;;;;;;;0.40;0.28;;;14.20;99.90;;;;;;5093017;28;20036;-39
2022/09/28 10:28:05;;;;;;;0.40;0.17;;;14.60;99.90;;;;;;5096080;28;20024;-41
2022/09/28 10:30:43;;;;;;;0.10;0.10;;;14.90;99.90;;;;;;5097005;28;20065;-42
2022/09/28 10:33:31;;;;;;;0.20;0.20;;;14.90;99.90;;;;;;5096981;28;20028;-45
2022/09/28 10:35:57;;;;;;;0.88;0.17;;;15.00;99.90;;;;;;5089422;28;20024;-43
2022/09/28 10:38:23;;;;;;;2.40;0.20;;;15.10;99.90;;;;;;5095706;28;20577;-40
2022/09/28 10:40:54;;;;;;;0.17;0.00;;;14.90;99.90;;;;;;5096525;28;20016;-47
2022/09/28 10:43:32;;;;;;;4.38;0.22;;;14.90;99.90;;;;;;5095535;28;20028;-43
2022/09/28 10:46:07;;;;;;;0.00;0.00;;;15.00;99.90;;;;;;5095483;28;20369;-40
2022/09/28 10:48:47;;;;;;;0.85;0.10;;;15.20;99.90;;;;;;5096429;28;20491;-41
2022/09/28 10:51:13;;;;;;;0.10;0.10;;;15.50;99.90;;;;;;5096285;28;20028;-41
2022/09/28 10:53:39;;;;;;;1.77;0.13;;;15.70;99.90;;;;;;5088169;28;20069;-43
2022/09/28 10:56:16;;;;;;;0.35;0.35;;;15.60;99.90;;;;;;5075963;28;20031;-45
2022/09/28 10:58:43;;;;;;;0.38;0.20;;;15.60;99.90;;;;;;5088588;28;20028;-48
2022/09/28 11:01:22;;;;;;;0.10;0.10;;;15.40;99.90;;;;;;5096186;28;20043;-44
2022/09/28 11:04:03;;;;;;;0.90;0.30;;;15.20;99.90;;;;;;5096123;28;20105;-41
2022/09/28 11:06:37;;;;;;;0.93;0.10;;;15.00;99.90;;;;;;5096014;28;20028;-44
2022/09/28 11:09:06;;;;;;;0.35;0.20;;;14.90;99.90;;;;;;5090400;28;20017;-43
2022/09/28 11:11:42;;;;;;;0.40;0.30;;;14.80;99.90;;;;;;5075682;28;20027;-45
2022/09/28 11:14:28;;;;;;;0.13;0.10;;;14.80;99.90;;;;;;5089720;28;20468;-43
2022/09/28 11:17:17;;;;;;;0.43;0.20;;;14.70;99.90;;;;;;5091413;28;20134;-43
2022/09/28 11:19:44;;;;;;;1.00;0.20;;;14.90;99.90;;;;;;5075569;28;20021;-44
2022/09/28 11:22:29;;;;;;;2.33;0.25;;;15.10;99.90;;;;;;5064991;28;20024;-40
2022/09/28 11:25:15;;;;;;;3.05;1.38;;;15.20;99.90;;;;;;5095719;28;20100;-43
2022/09/28 11:27:42;;;;;;;4.35;0.40;;;15.20;99.90;;;;;;5094642;28;20024;-40
2022/09/28 11:30:56;;;;;;;0.52;0.40;;;15.10;99.90;;;;;;5083983;28;20024;-43
2022/09/28 11:33:30;;;;;;;3.20;0.52;;;15.00;99.90;;;;;;4996806;28;20018;-42
2022/09/28 11:36:27;;;;;;;3.53;1.45;;;14.90;99.90;;;;;;5083408;28;20479;-45
2022/09/28 11:39:07;;;;;;;2.60;0.80;;;14.70;99.90;;;;;;5085620;28;20059;-48
2022/09/28 11:41:42;;;;;;;3.20;0.15;;;14.70;99.90;;;;;;5069577;28;20046;-43
2022/09/28 11:44:14;;;;;;;0.10;0.10;;;15.00;99.90;;;;;;5094528;28;20065;-42
2022/09/28 11:47:07;;;;;;;0.28;0.20;;;15.30;99.90;;;;;;5095159;28;20484;-43
2022/09/28 11:49:43;;;;;;;0.98;0.20;;;15.60;99.90;;;;;;5095281;28;20024;-42
2022/09/28 11:52:19;;;;;;;0.65;0.17;;;15.90;99.90;;;;;;5095426;28;20021;-42
2022/09/28 11:55:04;;;;;;;6.55;0.40;;;16.00;99.90;;;;;;5094301;28;20101;-39
2022/09/28 11:57:36;;;;;;;0.10;0.10;;;16.00;99.90;;;;;;5094562;28;20020;-42
2022/09/28 12:00:19;;;;;;;3.90;0.05;;;15.70;99.90;;;;;;5095081;28;20095;-42
2022/09/28 12:03:18;;;;;;;0.98;0.30;;;15.50;99.90;;;;;;5094487;28;20020;-41
2022/09/28 12:05:50;;;;;;;1.17;0.40;;;15.40;99.90;;;;;;5005052;28;20486;-40
2022/09/28 12:08:28;;;;;;;0.10;0.05;;;15.30;99.90;;;;;;5095315;28;20107;-42
2022/09/28 12:11:06;;;;;;;1.23;0.32;;;15.30;99.90;;;;;;5075398;28;20419;-42
2022/09/28 12:13:38;;;;;;;0.30;0.10;;;15.40;99.90;;;;;;5086601;28;20471;-43
2022/09/28 12:16:25;;;;;;;0.10;0.10;;;15.30;99.90;;;;;;5094765;28;20104;-41
2022/09/28 12:19:15;;;;;;;3.33;0.37;;;15.10;99.90;;;;;;5094743;28;20024;-45
2022/09/28 12:22:04;;;;;;;0.63;0.20;;;14.80;99.90;;;;;;5094590;28;20548;-41
2022/09/28 12:24:44;;;;;;;0.52;0.35;;;14.60;99.90;;;;;;5075036;28;20067;-40
2022/09/28 12:27:26;;;;;;;5.18;0.30;;;14.50;99.90;;;;;;5074509;28;20028;-41
2022/09/28 12:30:01;;;;;;;0.08;0.08;;;14.40;99.90;;;;;;5055799;28;20505;-40
2022/09/28 12:32:40;;;;;;;0.10;0.10;;;14.20;99.90;;;;;;5075327;28;20115;-61
2022/09/28 12:35:16;;;;;;;0.43;0.30;;;14.20;99.90;;;;;;5074178;28;20024;-41
2022/09/28 12:38:07;;;;;;;0.20;0.10;;;14.20;99.90;;;;;;5076354;28;20255;-42
2022/09/28 12:40:40;;;;;;;0.50;0.50;;;14.20;99.90;;;;;;5093475;28;20479;-41
2022/09/28 12:43:16;;;;;;;6.05;0.40;;;14.20;99.90;;;;;;5079339;28;20039;-43
2022/09/28 12:46:14;;;;;;;0.20;0.20;;;14.50;99.90;;;;;;5094290;28;20476;-42
2022/09/28 12:49:16;;;;;;;0.60;0.30;;;14.80;99.90;;;;;;5093597;28;20077;-41
2022/09/28 12:51:59;;;;;;;2.05;0.30;;;14.90;99.90;;;;;;5094351;28;20069;-40
2022/09/28 12:54:33;;;;;;;0.30;0.30;;;14.80;99.90;;;;;;5079004;28;20032;-39
2022/09/28 12:57:30;;;;;;;0.20;0.13;;;14.70;99.90;;;;;;5080174;28;20035;-41
2022/09/28 13:00:01;;;;;;;0.25;0.25;;;14.70;99.90;;;;;;5087369;28;20399;-43
2022/09/28 13:02:46;;;;;;;1.00;0.28;;;14.70;99.90;;;;;;5092343;28;20031;-40
2022/09/28 13:05:36;;;;;;;1.45;0.30;;;14.80;99.90;;;;;;5092835;28;20498;-34
2022/09/28 13:08:21;;;;;;;0.35;0.28;;;14.90;99.90;;;;;;5073661;28;20025;-44
2022/09/28 13:10:53;;;;;;;0.82;0.10;;;14.90;99.90;;;;;;5075924;28;20121;-41
2022/09/28 13:13:33;;;;;;;0.90;0.25;;;14.90;99.90;;;;;;5088877;28;20485;-41
2022/09/28 13:16:27;;;;;;;0.95;0.10;;;14.90;99.90;;;;;;5090910;28;20031;-40
2022/09/28 13:19:15;;;;;;;1.08;0.28;;;14.90;99.90;;;;;;5078948;28;20032;-41
2022/09/28 13:22:13;;;;;;;0.13;0.13;;;14.80;99.90;;;;;;5093619;28;20420;-41
2022/09/28 13:24:43;;;;;;;1.42;0.20;;;14.80;99.90;;;;;;5092535;28;20052;-39
2022/09/28 13:27:21;;;;;;;0.52;0.28;;;14.80;99.90;;;;;;5075981;28;20127;-43
2022/09/28 13:29:49;;;;;;;1.58;0.13;;;14.80;99.90;;;;;;5073171;28;20016;-41
2022/09/28 13:32:17;;;;;;;0.30;0.30;;;14.80;99.90;;;;;;5073079;28;20068;-41